sensor_id;sensor_type;location;lat;lon;timestamp;temperature;humidity
50013;DHT22;35901;48.694;9.476;2024-02-04T00:00:42;7.00;99.90
50013;DHT22;35901;48.694;9.476;2024-02-04T00:03:10;7.00;99.90
50013;DHT22;35901;48.694;9.476;2024-02-04T00:05:36;7.00;99.90
50013;DHT22;35901;48.694;9.476;2024-02-04T00:08:01;7.00;99.90
50013;DHT22;35901;48.694;9.476;2024-02-04T00:10:28;7.00;99.90
50013;DHT22;35901;48.694;9.476;2024-02-04T00:12:54;7.00;99.90
50013;DHT22;35901;48.694;9.476;2024-02-04T00:15:20;7.00;99.90
50013;DHT22;35901;48.694;9.476;2024-02-04T00:17:45;7.00;99.90
50013;DHT22;35901;48.694;9.476;2024-02-04T00:20:11;7.00;99.90
50013;DHT22;35901;48.694;9.476;2024-02-04T00:22:37;7.00;99.90
50013;DHT22;35901;48.694;9.476;2024-02-04T00:25:03;7.00;99.90
50013;DHT22;35901;48.694;9.476;2024-02-04T00:27:33;7.00;99.90
50013;DHT22;35901;48.694;9.476;2024-02-04T00:29:59;7.00;99.90
50013;DHT22;35901;48.694;9.476;2024-02-04T00:32:26;7.00;99.90
50013;DHT22;35901;48.694;9.476;2024-02-04T00:34:52;7.00;99.90
50013;DHT22;35901;48.694;9.476;2024-02-04T00:37:18;7.00;99.90
50013;DHT22;35901;48.694;9.476;2024-02-04T00:39:44;7.00;99.90
50013;DHT22;35901;48.694;9.476;2024-02-04T00:42:10;7.00;99.90
50013;DHT22;35901;48.694;9.476;2024-02-04T00:44:36;7.00;99.90
50013;DHT22;35901;48.694;9.476;2024-02-04T00:47:01;7.00;99.90
50013;DHT22;35901;48.694;9.476;2024-02-04T00:49:27;7.10;99.90
50013;DHT22;35901;48.694;9.476;2024-02-04T00:51:53;7.10;99.90
50013;DHT22;35901;48.694;9.476;2024-02-04T00:54:19;7.10;99.90
50013;DHT22;35901;48.694;9.476;2024-02-04T00:56:45;7.00;99.90
50013;DHT22;35901;48.694;9.476;2024-02-04T00:59:11;7.00;99.90
50013;DHT22;35901;48.694;9.476;2024-02-04T01:01:38;7.10;99.90
50013;DHT22;35901;48.694;9.476;2024-02-04T01:04:04;7.10;99.90
50013;DHT22;35901;48.694;9.476;2024-02-04T01:06:30;7.10;99.90
50013;DHT22;35901;48.694;9.476;2024-02-04T01:08:56;7.10;99.90
50013;DHT22;35901;48.694;9.476;2024-02-04T01:11:22;7.00;99.90
50013;DHT22;35901;48.694;9.476;2024-02-04T01:13:56;7.10;99.90
50013;DHT22;35901;48.694;9.476;2024-02-04T01:16:35;7.10;99.90
50013;DHT22;35901;48.694;9.476;2024-02-04T01:19:00;7.10;99.90
50013;DHT22;35901;48.694;9.476;2024-02-04T01:21:26;7.10;99.90
50013;DHT22;35901;48.694;9.476;2024-02-04T01:23:52;7.10;99.90
50013;DHT22;35901;48.694;9.476;2024-02-04T01:26:18;7.10;99.90
50013;DHT22;35901;48.694;9.476;2024-02-04T01:28:44;7.00;99.90
50013;DHT22;35901;48.694;9.476;2024-02-04T01:31:09;7.00;99.90
50013;DHT22;35901;48.694;9.476;2024-02-04T01:33:35;7.00;99.90
50013;DHT22;35901;48.694;9.476;2024-02-04T01:36:00;7.00;99.90
50013;DHT22;35901;48.694;9.476;2024-02-04T01:42:14;6.90;99.90
50013;DHT22;35901;48.694;9.476;2024-02-04T01:44:39;6.90;99.90
50013;DHT22;35901;48.694;9.476;2024-02-04T01:47:05;6.90;99.90
50013;DHT22;35901;48.694;9.476;2024-02-04T01:49:31;6.90;99.90
50013;DHT22;35901;48.694;9.476;2024-02-04T01:51:56;6.80;99.90
50013;DHT22;35901;48.694;9.476;2024-02-04T01:54:24;6.80;99.90
50013;DHT22;35901;48.694;9.476;2024-02-04T01:56:51;6.80;99.90
50013;DHT22;35901;48.694;9.476;2024-02-04T01:59:18;6.80;99.90
50013;DHT22;35901;48.694;9.476;2024-02-04T02:01:45;6.90;99.90
50013;DHT22;35901;48.694;9.476;2024-02-04T02:04:11;6.90;99.90
50013;DHT22;35901;48.694;9.476;2024-02-04T02:06:36;6.90;99.90
50013;DHT22;35901;48.694;9.476;2024-02-04T02:09:07;6.90;99.90
50013;DHT22;35901;48.694;9.476;2024-02-04T02:11:47;6.90;99.90
50013;DHT22;35901;48.694;9.476;2024-02-04T02:14:24;6.90;99.90
50013;DHT22;35901;48.694;9.476;2024-02-04T02:16:52;6.90;99.90
50013;DHT22;35901;48.694;9.476;2024-02-04T02:19:54;6.90;99.90
50013;DHT22;35901;48.694;9.476;2024-02-04T02:22:50;6.80;99.90
50013;DHT22;35901;48.694;9.476;2024-02-04T02:25:20;6.90;99.90
50013;DHT22;35901;48.694;9.476;2024-02-04T02:27:50;6.90;99.90
50013;DHT22;35901;48.694;9.476;2024-02-04T02:30:19;6.90;99.90
50013;DHT22;35901;48.694;9.476;2024-02-04T02:32:46;6.90;99.90
50013;DHT22;35901;48.694;9.476;2024-02-04T02:35:21;6.90;99.90
50013;DHT22;35901;48.694;9.476;2024-02-04T02:37:56;6.90;99.90
50013;DHT22;35901;48.694;9.476;2024-02-04T02:40:38;6.90;99.90
50013;DHT22;35901;48.694;9.476;2024-02-04T02:43:05;6.90;99.90
50013;DHT22;35901;48.694;9.476;2024-02-04T02:45:31;6.90;99.90
50013;DHT22;35901;48.694;9.476;2024-02-04T02:47:58;6.80;99.90
50013;DHT22;35901;48.694;9.476;2024-02-04T02:50:24;6.80;99.90
50013;DHT22;35901;48.694;9.476;2024-02-04T02:52:50;6.80;99.90
50013;DHT22;35901;48.694;9.476;2024-02-04T02:55:16;6.80;99.90
50013;DHT22;35901;48.694;9.476;2024-02-04T02:57:42;6.90;99.90
50013;DHT22;35901;48.694;9.476;2024-02-04T03:00:07;6.90;99.90
50013;DHT22;35901;48.694;9.476;2024-02-04T03:02:34;6.80;99.90
50013;DHT22;35901;48.694;9.476;2024-02-04T03:05:00;6.80;99.90
50013;DHT22;35901;48.694;9.476;2024-02-04T03:07:26;6.90;99.90
50013;DHT22;35901;48.694;9.476;2024-02-04T03:10:06;6.90;99.90
50013;DHT22;35901;48.694;9.476;2024-02-04T03:12:32;6.80;99.90
50013;DHT22;35901;48.694;9.476;2024-02-04T03:14:57;6.80;99.90
50013;DHT22;35901;48.694;9.476;2024-02-04T03:17:23;6.90;99.90
50013;DHT22;35901;48.694;9.476;2024-02-04T03:19:51;6.80;99.90
50013;DHT22;35901;48.694;9.476;2024-02-04T03:22:23;6.80;99.90
50013;DHT22;35901;48.694;9.476;2024-02-04T03:24:49;6.80;99.90
50013;DHT22;35901;48.694;9.476;2024-02-04T03:27:17;6.80;99.90
50013;DHT22;35901;48.694;9.476;2024-02-04T03:29:43;6.80;99.90
50013;DHT22;35901;48.694;9.476;2024-02-04T03:32:10;6.80;99.90
50013;DHT22;35901;48.694;9.476;2024-02-04T03:34:36;6.80;99.90
50013;DHT22;35901;48.694;9.476;2024-02-04T03:37:02;6.80;99.90
50013;DHT22;35901;48.694;9.476;2024-02-04T03:39:28;6.80;99.90
50013;DHT22;35901;48.694;9.476;2024-02-04T03:45:41;6.70;99.90
50013;DHT22;35901;48.694;9.476;2024-02-04T03:48:06;6.70;99.90
50013;DHT22;35901;48.694;9.476;2024-02-04T03:50:32;6.80;99.90
50013;DHT22;35901;48.694;9.476;2024-02-04T03:52:58;6.80;99.90
50013;DHT22;35901;48.694;9.476;2024-02-04T03:55:24;6.70;99.90
50013;DHT22;35901;48.694;9.476;2024-02-04T03:57:51;6.70;99.90
50013;DHT22;35901;48.694;9.476;2024-02-04T04:00:17;6.70;99.90
50013;DHT22;35901;48.694;9.476;2024-02-04T04:02:44;6.70;99.90
50013;DHT22;35901;48.694;9.476;2024-02-04T04:05:12;6.80;99.90
50013;DHT22;35901;48.694;9.476;2024-02-04T04:07:39;6.80;99.90
50013;DHT22;35901;48.694;9.476;2024-02-04T04:10:06;6.80;99.90
50013;DHT22;35901;48.694;9.476;2024-02-04T04:12:31;6.80;99.90
50013;DHT22;35901;48.694;9.476;2024-02-04T04:14:57;6.80;99.90
50013;DHT22;35901;48.694;9.476;2024-02-04T04:17:23;6.80;99.90
50013;DHT22;35901;48.694;9.476;2024-02-04T04:19:48;6.80;99.90
50013;DHT22;35901;48.694;9.476;2024-02-04T04:22:14;6.80;99.90
50013;DHT22;35901;48.694;9.476;2024-02-04T04:24:39;6.80;99.90
50013;DHT22;35901;48.694;9.476;2024-02-04T04:27:05;6.80;99.90
50013;DHT22;35901;48.694;9.476;2024-02-04T04:29:31;6.90;99.90
50013;DHT22;35901;48.694;9.476;2024-02-04T04:31:56;6.90;99.90
50013;DHT22;35901;48.694;9.476;2024-02-04T04:34:22;6.80;99.90
50013;DHT22;35901;48.694;9.476;2024-02-04T04:36:47;6.90;99.90
50013;DHT22;35901;48.694;9.476;2024-02-04T04:39:13;6.90;99.90
50013;DHT22;35901;48.694;9.476;2024-02-04T04:41:40;6.90;99.90
50013;DHT22;35901;48.694;9.476;2024-02-04T04:44:05;6.90;99.90
50013;DHT22;35901;48.694;9.476;2024-02-04T04:46:31;6.90;99.90
50013;DHT22;35901;48.694;9.476;2024-02-04T04:48:56;6.90;99.90
50013;DHT22;35901;48.694;9.476;2024-02-04T04:51:24;6.90;99.90
50013;DHT22;35901;48.694;9.476;2024-02-04T04:53:49;6.90;99.90
50013;DHT22;35901;48.694;9.476;2024-02-04T04:56:15;6.90;99.90
50013;DHT22;35901;48.694;9.476;2024-02-04T04:58:41;6.80;99.90
50013;DHT22;35901;48.694;9.476;2024-02-04T05:01:06;6.80;99.90
50013;DHT22;35901;48.694;9.476;2024-02-04T05:03:32;6.80;99.90
50013;DHT22;35901;48.694;9.476;2024-02-04T05:05:58;6.80;99.90
50013;DHT22;35901;48.694;9.476;2024-02-04T05:08:23;6.80;99.90
50013;DHT22;35901;48.694;9.476;2024-02-04T05:10:49;6.90;99.90
50013;DHT22;35901;48.694;9.476;2024-02-04T05:13:14;6.80;99.90
50013;DHT22;35901;48.694;9.476;2024-02-04T05:15:42;6.80;99.90
50013;DHT22;35901;48.694;9.476;2024-02-04T05:18:08;6.80;99.90
50013;DHT22;35901;48.694;9.476;2024-02-04T05:20:34;6.80;99.90
50013;DHT22;35901;48.694;9.476;2024-02-04T05:23:00;6.80;99.90
50013;DHT22;35901;48.694;9.476;2024-02-04T05:25:26;6.80;99.90
50013;DHT22;35901;48.694;9.476;2024-02-04T05:27:51;6.80;99.90
50013;DHT22;35901;48.694;9.476;2024-02-04T05:30:17;6.80;99.90
50013;DHT22;35901;48.694;9.476;2024-02-04T05:32:43;6.80;99.90
50013;DHT22;35901;48.694;9.476;2024-02-04T05:35:10;6.80;99.90
50013;DHT22;35901;48.694;9.476;2024-02-04T05:37:36;6.70;99.90
50013;DHT22;35901;48.694;9.476;2024-02-04T05:40:02;6.80;99.90
50013;DHT22;35901;48.694;9.476;2024-02-04T05:42:28;6.80;99.90
50013;DHT22;35901;48.694;9.476;2024-02-04T05:44:54;6.70;99.90
50013;DHT22;35901;48.694;9.476;2024-02-04T05:47:19;6.70;99.90
50013;DHT22;35901;48.694;9.476;2024-02-04T05:49:45;6.70;99.90
50013;DHT22;35901;48.694;9.476;2024-02-04T05:52:12;6.70;99.90
50013;DHT22;35901;48.694;9.476;2024-02-04T05:54:38;6.70;99.90
50013;DHT22;35901;48.694;9.476;2024-02-04T05:57:05;6.70;99.90
50013;DHT22;35901;48.694;9.476;2024-02-04T05:59:31;6.70;99.90
50013;DHT22;35901;48.694;9.476;2024-02-04T06:01:57;6.70;99.90
50013;DHT22;35901;48.694;9.476;2024-02-04T06:04:22;6.70;99.90
50013;DHT22;35901;48.694;9.476;2024-02-04T06:06:48;6.70;99.90
50013;DHT22;35901;48.694;9.476;2024-02-04T06:09:13;6.70;99.90
50013;DHT22;35901;48.694;9.476;2024-02-04T06:11:39;6.70;99.90
50013;DHT22;35901;48.694;9.476;2024-02-04T06:14:05;6.70;99.90
50013;DHT22;35901;48.694;9.476;2024-02-04T06:16:30;6.70;99.90
50013;DHT22;35901;48.694;9.476;2024-02-04T06:18:56;6.60;99.90
50013;DHT22;35901;48.694;9.476;2024-02-04T06:21:23;6.70;99.90
50013;DHT22;35901;48.694;9.476;2024-02-04T06:23:49;6.70;99.90
50013;DHT22;35901;48.694;9.476;2024-02-04T06:26:15;6.70;99.90
50013;DHT22;35901;48.694;9.476;2024-02-04T06:28:40;6.60;99.90
50013;DHT22;35901;48.694;9.476;2024-02-04T06:31:09;6.60;99.90
50013;DHT22;35901;48.694;9.476;2024-02-04T06:33:34;6.60;99.90
50013;DHT22;35901;48.694;9.476;2024-02-04T06:36:00;6.60;99.90
50013;DHT22;35901;48.694;9.476;2024-02-04T06:38:26;6.60;99.90
50013;DHT22;35901;48.694;9.476;2024-02-04T06:40:52;6.60;99.90
50013;DHT22;35901;48.694;9.476;2024-02-04T06:43:17;6.60;99.90
50013;DHT22;35901;48.694;9.476;2024-02-04T06:45:43;6.60;99.90
50013;DHT22;35901;48.694;9.476;2024-02-04T06:48:08;6.60;99.90
50013;DHT22;35901;48.694;9.476;2024-02-04T06:50:35;6.70;99.90
50013;DHT22;35901;48.694;9.476;2024-02-04T06:53:02;6.70;99.90
50013;DHT22;35901;48.694;9.476;2024-02-04T06:55:27;6.70;99.90
50013;DHT22;35901;48.694;9.476;2024-02-04T06:57:53;6.70;99.90
50013;DHT22;35901;48.694;9.476;2024-02-04T07:00:19;6.70;99.90
50013;DHT22;35901;48.694;9.476;2024-02-04T07:02:46;6.70;99.90
50013;DHT22;35901;48.694;9.476;2024-02-04T07:05:12;6.80;99.90
50013;DHT22;35901;48.694;9.476;2024-02-04T07:07:38;6.80;99.90
50013;DHT22;35901;48.694;9.476;2024-02-04T07:10:04;6.80;99.90
50013;DHT22;35901;48.694;9.476;2024-02-04T07:12:29;6.70;99.90
50013;DHT22;35901;48.694;9.476;2024-02-04T07:14:55;6.80;99.90
50013;DHT22;35901;48.694;9.476;2024-02-04T07:17:21;6.80;99.90
50013;DHT22;35901;48.694;9.476;2024-02-04T07:19:46;6.80;99.90
50013;DHT22;35901;48.694;9.476;2024-02-04T07:22:12;6.80;99.90
50013;DHT22;35901;48.694;9.476;2024-02-04T07:24:37;6.80;99.90
50013;DHT22;35901;48.694;9.476;2024-02-04T07:27:03;6.80;99.90
50013;DHT22;35901;48.694;9.476;2024-02-04T07:29:29;6.80;99.90
50013;DHT22;35901;48.694;9.476;2024-02-04T07:31:55;6.80;99.90
50013;DHT22;35901;48.694;9.476;2024-02-04T07:34:20;6.80;99.90
50013;DHT22;35901;48.694;9.476;2024-02-04T07:36:46;6.90;99.90
50013;DHT22;35901;48.694;9.476;2024-02-04T07:39:11;6.90;99.90
50013;DHT22;35901;48.694;9.476;2024-02-04T07:41:37;6.90;99.90
50013;DHT22;35901;48.694;9.476;2024-02-04T07:44:03;6.90;99.90
50013;DHT22;35901;48.694;9.476;2024-02-04T07:46:29;7.00;99.90
50013;DHT22;35901;48.694;9.476;2024-02-04T07:48:54;7.00;99.90
50013;DHT22;35901;48.694;9.476;2024-02-04T07:51:20;7.10;99.90
50013;DHT22;35901;48.694;9.476;2024-02-04T07:53:46;7.10;99.90
50013;DHT22;35901;48.694;9.476;2024-02-04T07:56:11;7.20;99.90
50013;DHT22;35901;48.694;9.476;2024-02-04T07:58:37;7.20;99.90
50013;DHT22;35901;48.694;9.476;2024-02-04T08:01:02;7.30;99.90
50013;DHT22;35901;48.694;9.476;2024-02-04T08:03:28;7.30;99.90
50013;DHT22;35901;48.694;9.476;2024-02-04T08:05:54;7.40;99.90
50013;DHT22;35901;48.694;9.476;2024-02-04T08:08:19;7.50;99.90
50013;DHT22;35901;48.694;9.476;2024-02-04T08:10:45;7.50;99.90
50013;DHT22;35901;48.694;9.476;2024-02-04T08:13:11;7.50;99.90
50013;DHT22;35901;48.694;9.476;2024-02-04T08:15:37;7.50;99.90
50013;DHT22;35901;48.694;9.476;2024-02-04T08:18:02;7.50;99.90
50013;DHT22;35901;48.694;9.476;2024-02-04T08:20:29;7.50;99.90
50013;DHT22;35901;48.694;9.476;2024-02-04T08:22:55;7.60;99.90
50013;DHT22;35901;48.694;9.476;2024-02-04T08:25:20;7.60;99.90
50013;DHT22;35901;48.694;9.476;2024-02-04T08:27:46;7.60;99.90
50013;DHT22;35901;48.694;9.476;2024-02-04T08:30:12;7.70;99.90
50013;DHT22;35901;48.694;9.476;2024-02-04T08:32:38;7.70;99.90
50013;DHT22;35901;48.694;9.476;2024-02-04T08:35:05;7.80;99.90
50013;DHT22;35901;48.694;9.476;2024-02-04T08:37:32;8.00;99.90
50013;DHT22;35901;48.694;9.476;2024-02-04T08:39:58;8.10;99.90
50013;DHT22;35901;48.694;9.476;2024-02-04T08:42:24;8.10;99.90
50013;DHT22;35901;48.694;9.476;2024-02-04T08:44:50;8.30;99.90
50013;DHT22;35901;48.694;9.476;2024-02-04T08:47:15;8.30;99.90
50013;DHT22;35901;48.694;9.476;2024-02-04T08:49:42;8.30;99.90
50013;DHT22;35901;48.694;9.476;2024-02-04T08:52:08;8.40;99.90
50013;DHT22;35901;48.694;9.476;2024-02-04T08:54:34;8.40;99.90
50013;DHT22;35901;48.694;9.476;2024-02-04T08:56:59;8.60;99.90
50013;DHT22;35901;48.694;9.476;2024-02-04T08:59:25;8.80;99.90
50013;DHT22;35901;48.694;9.476;2024-02-04T09:01:51;8.90;99.90
50013;DHT22;35901;48.694;9.476;2024-02-04T09:04:16;8.90;99.90
50013;DHT22;35901;48.694;9.476;2024-02-04T09:06:42;8.70;99.90
50013;DHT22;35901;48.694;9.476;2024-02-04T09:09:08;8.50;99.90
50013;DHT22;35901;48.694;9.476;2024-02-04T09:11:34;8.50;99.90
50013;DHT22;35901;48.694;9.476;2024-02-04T09:14:00;8.50;99.90
50013;DHT22;35901;48.694;9.476;2024-02-04T09:16:25;8.40;99.90
50013;DHT22;35901;48.694;9.476;2024-02-04T09:18:51;8.50;99.90
50013;DHT22;35901;48.694;9.476;2024-02-04T09:21:17;8.30;99.90
50013;DHT22;35901;48.694;9.476;2024-02-04T09:23:43;8.30;99.90
50013;DHT22;35901;48.694;9.476;2024-02-04T09:26:08;8.20;99.90
50013;DHT22;35901;48.694;9.476;2024-02-04T09:28:35;8.10;99.90
50013;DHT22;35901;48.694;9.476;2024-02-04T09:31:03;8.00;99.90
50013;DHT22;35901;48.694;9.476;2024-02-04T09:33:29;8.00;99.90
50013;DHT22;35901;48.694;9.476;2024-02-04T09:35:54;8.10;99.90
50013;DHT22;35901;48.694;9.476;2024-02-04T09:38:20;8.20;99.90
50013;DHT22;35901;48.694;9.476;2024-02-04T09:40:46;8.20;99.90
50013;DHT22;35901;48.694;9.476;2024-02-04T09:43:12;8.10;99.90
50013;DHT22;35901;48.694;9.476;2024-02-04T09:45:38;8.10;99.90
50013;DHT22;35901;48.694;9.476;2024-02-04T09:48:06;8.20;99.90
50013;DHT22;35901;48.694;9.476;2024-02-04T09:50:33;8.30;99.90
50013;DHT22;35901;48.694;9.476;2024-02-04T09:52:59;8.50;99.90
50013;DHT22;35901;48.694;9.476;2024-02-04T09:55:27;8.60;99.90
50013;DHT22;35901;48.694;9.476;2024-02-04T09:57:54;8.50;99.90
50013;DHT22;35901;48.694;9.476;2024-02-04T10:00:20;8.60;99.90
50013;DHT22;35901;48.694;9.476;2024-02-04T10:02:47;8.70;99.90
50013;DHT22;35901;48.694;9.476;2024-02-04T10:05:13;8.90;99.90
50013;DHT22;35901;48.694;9.476;2024-02-04T10:07:39;8.90;99.90
50013;DHT22;35901;48.694;9.476;2024-02-04T10:10:06;9.00;99.90
50013;DHT22;35901;48.694;9.476;2024-02-04T10:12:32;8.90;99.90
50013;DHT22;35901;48.694;9.476;2024-02-04T10:14:59;8.90;99.90
50013;DHT22;35901;48.694;9.476;2024-02-04T10:17:25;8.90;99.90
50013;DHT22;35901;48.694;9.476;2024-02-04T10:19:51;8.90;99.90
50013;DHT22;35901;48.694;9.476;2024-02-04T10:22:17;8.90;99.90
50013;DHT22;35901;48.694;9.476;2024-02-04T10:28:31;9.00;99.90
50013;DHT22;35901;48.694;9.476;2024-02-04T10:30:56;9.20;99.90
50013;DHT22;35901;48.694;9.476;2024-02-04T10:33:22;9.10;99.90
50013;DHT22;35901;48.694;9.476;2024-02-04T10:35:48;9.10;99.90
50013;DHT22;35901;48.694;9.476;2024-02-04T10:38:13;9.10;99.90
50013;DHT22;35901;48.694;9.476;2024-02-04T10:40:39;9.20;99.90
50013;DHT22;35901;48.694;9.476;2024-02-04T10:43:04;9.40;99.90
50013;DHT22;35901;48.694;9.476;2024-02-04T10:45:33;9.50;99.90
50013;DHT22;35901;48.694;9.476;2024-02-04T10:48:04;9.60;99.90
50013;DHT22;35901;48.694;9.476;2024-02-04T10:50:34;9.60;99.90
50013;DHT22;35901;48.694;9.476;2024-02-04T10:53:04;9.70;99.90
50013;DHT22;35901;48.694;9.476;2024-02-04T10:59:27;9.80;99.90
50013;DHT22;35901;48.694;9.476;2024-02-04T11:01:56;10.00;99.90
50013;DHT22;35901;48.694;9.476;2024-02-04T11:04:23;10.00;99.90
50013;DHT22;35901;48.694;9.476;2024-02-04T11:06:50;9.90;99.90
50013;DHT22;35901;48.694;9.476;2024-02-04T11:09:18;9.70;99.90
50013;DHT22;35901;48.694;9.476;2024-02-04T11:11:45;9.60;99.90
50013;DHT22;35901;48.694;9.476;2024-02-04T11:14:16;9.60;99.90
50013;DHT22;35901;48.694;9.476;2024-02-04T11:19:32;10.50;99.90
50013;DHT22;35901;48.694;9.476;2024-02-04T11:22:27;10.60;99.90
50013;DHT22;35901;48.694;9.476;2024-02-04T11:28:44;9.90;99.90
50013;DHT22;35901;48.694;9.476;2024-02-04T11:31:19;9.70;99.90
50013;DHT22;35901;48.694;9.476;2024-02-04T11:33:45;9.60;99.90
50013;DHT22;35901;48.694;9.476;2024-02-04T11:36:18;9.60;99.90
50013;DHT22;35901;48.694;9.476;2024-02-04T11:38:48;9.50;99.90
50013;DHT22;35901;48.694;9.476;2024-02-04T11:41:24;9.60;99.90
50013;DHT22;35901;48.694;9.476;2024-02-04T11:43:55;9.60;99.90
50013;DHT22;35901;48.694;9.476;2024-02-04T11:46:21;9.60;99.90
50013;DHT22;35901;48.694;9.476;2024-02-04T11:48:53;9.60;99.90
50013;DHT22;35901;48.694;9.476;2024-02-04T11:51:23;9.60;99.90
50013;DHT22;35901;48.694;9.476;2024-02-04T11:53:50;9.50;99.90
50013;DHT22;35901;48.694;9.476;2024-02-04T12:03:51;9.30;99.90
50013;DHT22;35901;48.694;9.476;2024-02-04T12:06:17;9.30;99.90
50013;DHT22;35901;48.694;9.476;2024-02-04T12:08:44;9.30;99.90
50013;DHT22;35901;48.694;9.476;2024-02-04T12:11:09;9.30;99.90
50013;DHT22;35901;48.694;9.476;2024-02-04T12:13:35;9.30;99.90
50013;DHT22;35901;48.694;9.476;2024-02-04T12:16:05;9.40;99.90
50013;DHT22;35901;48.694;9.476;2024-02-04T12:18:33;9.40;99.90
50013;DHT22;35901;48.694;9.476;2024-02-04T12:20:59;9.50;99.90
50013;DHT22;35901;48.694;9.476;2024-02-04T12:23:25;9.60;99.90
50013;DHT22;35901;48.694;9.476;2024-02-04T12:32:43;9.90;99.90
50013;DHT22;35901;48.694;9.476;2024-02-04T12:35:13;10.00;99.90
50013;DHT22;35901;48.694;9.476;2024-02-04T12:37:50;10.20;99.90
50013;DHT22;35901;48.694;9.476;2024-02-04T12:40:27;10.30;99.90
50013;DHT22;35901;48.694;9.476;2024-02-04T12:42:57;10.30;99.90
50013;DHT22;35901;48.694;9.476;2024-02-04T12:45:24;10.30;99.90
50013;DHT22;35901;48.694;9.476;2024-02-04T12:47:55;10.30;99.90
50013;DHT22;35901;48.694;9.476;2024-02-04T12:50:21;10.30;99.90
50013;DHT22;35901;48.694;9.476;2024-02-04T12:52:48;10.30;99.90
50013;DHT22;35901;48.694;9.476;2024-02-04T12:55:23;10.40;99.90
50013;DHT22;35901;48.694;9.476;2024-02-04T12:57:49;10.40;99.90
50013;DHT22;35901;48.694;9.476;2024-02-04T13:00:18;10.50;99.90
50013;DHT22;35901;48.694;9.476;2024-02-04T13:02:43;10.50;99.90
50013;DHT22;35901;48.694;9.476;2024-02-04T13:05:09;10.70;99.90
50013;DHT22;35901;48.694;9.476;2024-02-04T13:07:36;10.80;99.90
50013;DHT22;35901;48.694;9.476;2024-02-04T13:10:02;11.00;99.90
50013;DHT22;35901;48.694;9.476;2024-02-04T13:12:28;11.10;99.90
50013;DHT22;35901;48.694;9.476;2024-02-04T13:14:53;11.30;99.90
50013;DHT22;35901;48.694;9.476;2024-02-04T13:17:19;11.30;99.90
50013;DHT22;35901;48.694;9.476;2024-02-04T13:19:45;11.50;99.90
50013;DHT22;35901;48.694;9.476;2024-02-04T13:22:10;11.50;99.90
50013;DHT22;35901;48.694;9.476;2024-02-04T13:24:37;11.60;99.90
50013;DHT22;35901;48.694;9.476;2024-02-04T13:27:03;11.70;99.90
50013;DHT22;35901;48.694;9.476;2024-02-04T13:29:32;11.60;99.90
50013;DHT22;35901;48.694;9.476;2024-02-04T13:31:57;11.60;99.90
50013;DHT22;35901;48.694;9.476;2024-02-04T13:34:23;11.60;99.90
50013;DHT22;35901;48.694;9.476;2024-02-04T13:36:49;11.50;99.90
50013;DHT22;35901;48.694;9.476;2024-02-04T13:39:15;11.40;99.90
50013;DHT22;35901;48.694;9.476;2024-02-04T13:41:43;11.50;99.90
50013;DHT22;35901;48.694;9.476;2024-02-04T13:44:10;11.50;99.90
50013;DHT22;35901;48.694;9.476;2024-02-04T13:46:35;11.60;99.90
50013;DHT22;35901;48.694;9.476;2024-02-04T13:49:02;11.50;99.90
50013;DHT22;35901;48.694;9.476;2024-02-04T13:51:28;11.40;99.90
50013;DHT22;35901;48.694;9.476;2024-02-04T13:53:53;11.30;99.90
50013;DHT22;35901;48.694;9.476;2024-02-04T13:56:20;11.30;99.90
50013;DHT22;35901;48.694;9.476;2024-02-04T14:02:00;11.10;99.90
50013;DHT22;35901;48.694;9.476;2024-02-04T14:04:27;11.10;99.90
50013;DHT22;35901;48.694;9.476;2024-02-04T14:06:52;11.10;99.90
50013;DHT22;35901;48.694;9.476;2024-02-04T14:09:18;11.00;99.90
50013;DHT22;35901;48.694;9.476;2024-02-04T14:11:44;11.00;99.90
50013;DHT22;35901;48.694;9.476;2024-02-04T14:14:09;11.00;99.90
50013;DHT22;35901;48.694;9.476;2024-02-04T14:16:35;11.00;99.90
50013;DHT22;35901;48.694;9.476;2024-02-04T14:19:01;11.00;99.90
50013;DHT22;35901;48.694;9.476;2024-02-04T14:21:26;11.00;99.90
50013;DHT22;35901;48.694;9.476;2024-02-04T14:23:52;11.00;99.90
50013;DHT22;35901;48.694;9.476;2024-02-04T14:26:21;11.00;99.90
50013;DHT22;35901;48.694;9.476;2024-02-04T14:32:13;10.90;99.90
50013;DHT22;35901;48.694;9.476;2024-02-04T14:34:38;10.90;99.90
50013;DHT22;35901;48.694;9.476;2024-02-04T14:37:04;10.80;99.90
50013;DHT22;35901;48.694;9.476;2024-02-04T14:39:30;10.90;99.90
50013;DHT22;35901;48.694;9.476;2024-02-04T14:41:57;10.80;99.90
50013;DHT22;35901;48.694;9.476;2024-02-04T14:44:23;10.80;99.90
50013;DHT22;35901;48.694;9.476;2024-02-04T14:46:49;10.70;99.90
50013;DHT22;35901;48.694;9.476;2024-02-04T14:49:15;10.70;99.90
50013;DHT22;35901;48.694;9.476;2024-02-04T14:51:41;10.60;99.90
50013;DHT22;35901;48.694;9.476;2024-02-04T14:54:07;10.50;99.90
50013;DHT22;35901;48.694;9.476;2024-02-04T14:56:40;10.50;99.90
50013;DHT22;35901;48.694;9.476;2024-02-04T14:59:10;10.40;99.90
50013;DHT22;35901;48.694;9.476;2024-02-04T15:01:43;10.40;99.90
50013;DHT22;35901;48.694;9.476;2024-02-04T15:04:09;10.40;99.90
50013;DHT22;35901;48.694;9.476;2024-02-04T15:06:37;10.30;99.90
50013;DHT22;35901;48.694;9.476;2024-02-04T15:09:02;10.30;99.90
50013;DHT22;35901;48.694;9.476;2024-02-04T15:11:28;10.30;99.90
50013;DHT22;35901;48.694;9.476;2024-02-04T15:13:56;10.20;99.90
50013;DHT22;35901;48.694;9.476;2024-02-04T15:16:22;10.20;99.90
50013;DHT22;35901;48.694;9.476;2024-02-04T15:18:48;10.10;99.90
50013;DHT22;35901;48.694;9.476;2024-02-04T15:21:14;10.10;99.90
50013;DHT22;35901;48.694;9.476;2024-02-04T15:23:40;10.10;99.90
50013;DHT22;35901;48.694;9.476;2024-02-04T15:26:07;10.10;99.90
50013;DHT22;35901;48.694;9.476;2024-02-04T15:28:35;10.10;99.90
50013;DHT22;35901;48.694;9.476;2024-02-04T15:35:08;10.00;99.90
50013;DHT22;35901;48.694;9.476;2024-02-04T15:37:35;9.90;99.90
50013;DHT22;35901;48.694;9.476;2024-02-04T15:40:00;10.00;99.90
50013;DHT22;35901;48.694;9.476;2024-02-04T15:42:26;9.90;99.90
50013;DHT22;35901;48.694;9.476;2024-02-04T15:44:52;9.90;99.90
50013;DHT22;35901;48.694;9.476;2024-02-04T15:47:18;9.90;99.90
50013;DHT22;35901;48.694;9.476;2024-02-04T15:49:44;9.90;99.90
50013;DHT22;35901;48.694;9.476;2024-02-04T15:52:11;9.90;99.90
50013;DHT22;35901;48.694;9.476;2024-02-04T15:54:37;9.80;99.90
50013;DHT22;35901;48.694;9.476;2024-02-04T15:57:08;9.80;99.90
50013;DHT22;35901;48.694;9.476;2024-02-04T16:00:01;9.80;99.90
50013;DHT22;35901;48.694;9.476;2024-02-04T16:02:36;9.70;99.90
50013;DHT22;35901;48.694;9.476;2024-02-04T16:05:02;9.70;99.90
50013;DHT22;35901;48.694;9.476;2024-02-04T16:07:28;9.70;99.90
50013;DHT22;35901;48.694;9.476;2024-02-04T16:09:54;9.70;99.90
50013;DHT22;35901;48.694;9.476;2024-02-04T16:12:21;9.70;99.90
50013;DHT22;35901;48.694;9.476;2024-02-04T16:14:50;9.70;99.90
50013;DHT22;35901;48.694;9.476;2024-02-04T16:17:18;9.60;99.90
50013;DHT22;35901;48.694;9.476;2024-02-04T16:19:49;9.60;99.90
50013;DHT22;35901;48.694;9.476;2024-02-04T16:22:16;9.60;99.90
50013;DHT22;35901;48.694;9.476;2024-02-04T16:24:46;9.50;99.90
50013;DHT22;35901;48.694;9.476;2024-02-04T16:27:12;9.50;99.90